Time;durP1;ratioP1;P1;durP2;ratioP2;P2;SDS_P1;SDS_P2;PMS_P1;PMS_P2;Temp;Humidity;BMP_temperature;BMP_pressure;BME280_temperature;BME280_humidity;BME280_pressure;Samples;Min_cycle;Max_cycle;Signal;HPM_P1;HPM_P2
2020/12/08 00:06:30;;;;;;;0.70;0.60;;;2.00;99.90;;;2.41;100.00;-20747.66;5018255;23;20301;-68
2020/12/08 00:08:58;;;;;;;0.60;0.50;;;1.90;99.90;;;2.44;100.00;-20748.22;5011826;28;20210;-69
2020/12/08 00:11:25;;;;;;;0.70;0.60;;;1.90;99.90;;;2.47;100.00;-20749.03;5007495;28;20192;-69
2020/12/08 00:13:52;;;;;;;0.60;0.60;;;1.90;99.90;;;2.55;100.00;-20751.41;4993969;28;20192;-69
2020/12/08 00:16:18;;;;;;;0.63;0.55;;;2.00;99.90;;;2.61;100.00;-20752.94;5000872;28;20222;-68
2020/12/08 00:18:45;;;;;;;0.60;0.60;;;2.00;99.90;;;2.57;100.00;-20751.84;4995399;28;20237;-68
2020/12/08 00:21:15;;;;;;;0.60;0.60;;;2.10;99.90;;;2.49;100.00;-20749.59;4994578;28;20601;-68
2020/12/08 00:23:43;;;;;;;0.60;0.60;;;2.00;99.90;;;2.47;100.00;-20749.19;5013704;28;20249;-70
2020/12/08 00:26:12;;;;;;;0.70;0.65;;;2.00;99.90;;;2.51;100.00;-20750.31;5013372;28;20694;-68
2020/12/08 00:28:39;;;;;;;0.60;0.60;;;2.10;99.90;;;2.59;100.00;-20752.41;5013414;28;20246;-68
2020/12/08 00:31:06;;;;;;;0.60;0.50;;;2.10;99.90;;;2.58;100.00;-20752.25;5005639;28;20435;-68
2020/12/08 00:33:33;;;;;;;0.60;0.60;;;2.10;99.90;;;2.56;100.00;-20751.56;5013864;28;20211;-68
2020/12/08 00:36:02;;;;;;;0.60;0.60;;;2.10;99.90;;;2.50;100.00;-20749.88;5013722;28;20202;-69
2020/12/08 00:38:29;;;;;;;0.70;0.60;;;2.10;99.90;;;2.45;100.00;-20748.47;5013785;28;20179;-69
2020/12/08 00:40:57;;;;;;;0.98;0.80;;;2.10;99.90;;;2.47;100.00;-20749.19;5028290;28;20255;-68
2020/12/08 00:43:24;;;;;;;0.70;0.60;;;2.10;99.90;;;2.45;100.00;-20748.47;5013114;28;20199;-68
2020/12/08 00:45:52;;;;;;;0.60;0.60;;;2.10;99.90;;;2.44;100.00;-20748.34;5013048;28;20179;-68
2020/12/08 00:48:19;;;;;;;0.60;0.60;;;2.00;99.90;;;2.40;100.00;-20747.22;5011757;28;20227;-68
2020/12/08 00:50:48;;;;;;;0.60;0.60;;;2.00;99.90;;;2.37;100.00;-20746.53;5012033;28;20199;-68
2020/12/08 00:53:15;;;;;;;0.60;0.60;;;1.90;99.90;;;2.50;100.00;-20749.88;5012380;28;20250;-68
2020/12/08 00:55:43;;;;;;;0.60;0.60;;;1.90;99.90;;;2.57;100.00;-20751.84;5012072;28;20206;-67
2020/12/08 00:58:11;;;;;;;0.70;0.60;;;2.10;99.90;;;2.64;100.00;-20753.94;5013415;28;20230;-68
2020/12/08 01:00:39;;;;;;;0.60;0.60;;;2.10;99.90;;;2.68;100.00;-20754.91;5011934;28;20191;-68
2020/12/08 01:03:07;;;;;;;0.70;0.60;;;2.20;99.90;;;2.69;100.00;-20755.03;5013400;28;20613;-68
2020/12/08 01:05:33;;;;;;;0.70;0.60;;;2.20;99.90;;;2.68;100.00;-20754.91;5001764;28;20210;-68
2020/12/08 01:08:04;;;;;;;0.60;0.60;;;2.20;99.90;;;2.57;100.00;-20751.84;5010070;28;20309;-68
2020/12/08 01:10:31;;;;;;;0.65;0.57;;;2.10;99.90;;;2.45;100.00;-20748.47;5012545;28;20186;-69
2020/12/08 01:12:59;;;;;;;0.60;0.60;;;2.00;99.90;;;2.30;100.00;-20744.44;5012463;28;20654;-68
2020/12/08 01:15:27;;;;;;;0.90;0.90;;;1.90;99.90;;;2.12;100.00;-20739.53;5028338;28;20287;-68
2020/12/08 01:17:54;;;;;;;0.60;0.50;;;1.80;99.90;;;2.07;100.00;-20738.28;5012109;28;20210;-68
2020/12/08 01:20:23;;;;;;;0.60;0.60;;;1.70;99.90;;;2.01;100.00;-20736.47;5027751;28;20245;-69
2020/12/08 01:22:53;;;;;;;0.70;0.60;;;1.70;99.90;;;2.01;100.00;-20736.47;4997285;28;20199;-68
2020/12/08 01:25:22;;;;;;;0.70;0.60;;;1.60;99.90;;;1.92;100.00;-20734.25;5011974;28;20202;-68
2020/12/08 01:27:49;;;;;;;0.65;0.60;;;1.60;99.90;;;1.80;100.00;-20730.75;5028014;28;20211;-68
2020/12/08 01:30:16;;;;;;;0.70;0.60;;;1.50;99.90;;;1.83;100.00;-20731.59;5011688;28;20656;-70
2020/12/08 01:32:48;;;;;;;0.70;0.60;;;1.60;99.90;;;1.81;100.00;-20731.16;4995309;28;20203;-68
2020/12/08 01:35:19;;;;;;;0.70;0.60;;;1.50;99.90;;;1.94;100.00;-20734.66;4994251;28;20199;-68
2020/12/08 01:37:54;;;;;;;0.60;0.50;;;1.60;99.90;;;1.96;100.00;-20735.06;5008492;28;20195;-68
2020/12/08 01:40:21;;;;;;;0.70;0.60;;;1.60;99.90;;;2.01;100.00;-20736.47;4993757;28;20227;-70
2020/12/08 01:42:48;;;;;;;0.70;0.60;;;1.60;99.90;;;2.07;100.00;-20738.28;5008889;28;20207;-68
2020/12/08 01:45:16;;;;;;;0.70;0.60;;;1.60;99.90;;;2.22;100.00;-20742.34;5010443;28;20195;-69
2020/12/08 01:47:45;;;;;;;0.60;0.60;;;1.70;99.90;;;2.46;100.00;-20748.75;4976696;28;20699;-72
2020/12/08 01:50:14;;;;;;;0.60;0.60;;;2.00;99.90;;;2.68;100.00;-20754.91;4992436;28;20199;-68
2020/12/08 01:52:42;;;;;;;0.60;0.60;;;2.10;99.90;;;2.88;100.00;-20760.50;5012314;28;20211;-68
2020/12/08 01:55:14;;;;;;;0.60;0.50;;;2.30;99.90;;;3.06;100.00;-20765.38;5011512;28;20199;-69
2020/12/08 01:57:47;;;;;;;0.70;0.60;;;2.50;99.90;;;3.11;100.00;-20766.63;5011324;28;20187;-69
2020/12/08 02:00:17;;;;;;;0.60;0.60;;;2.60;99.90;;;3.20;100.00;-20769.00;4992075;28;20207;-69
2020/12/08 02:02:46;;;;;;;0.70;0.60;;;2.70;99.90;;;3.27;100.00;-20771.09;5008001;28;20543;-69
2020/12/08 02:05:27;;;;;;;0.60;0.50;;;2.80;99.90;;;3.37;100.00;-20773.75;5028262;28;20230;-69
2020/12/08 02:07:54;;;;;;;0.60;0.60;;;2.90;99.90;;;3.41;100.00;-20774.72;5012626;28;20223;-68
2020/12/08 02:10:21;;;;;;;0.60;0.60;;;2.90;99.90;;;3.44;100.00;-20775.56;5011050;28;20278;-69
2020/12/08 02:12:50;;;;;;;0.60;0.60;;;2.90;99.90;;;3.48;100.00;-20776.81;5011601;28;20647;-68
2020/12/08 02:15:20;;;;;;;0.60;0.60;;;2.90;99.90;;;3.51;100.00;-20777.66;5013658;28;20201;-68
2020/12/08 02:17:48;;;;;;;0.60;0.50;;;2.90;99.90;;;3.51;100.00;-20777.50;5030071;28;20619;-69
2020/12/08 02:20:16;;;;;;;0.60;0.50;;;2.90;99.90;;;3.54;100.00;-20778.34;5031405;28;20280;-69
2020/12/08 02:22:44;;;;;;;0.60;0.60;;;2.90;99.90;;;3.62;100.00;-20780.56;5030704;28;20199;-68
2020/12/08 02:25:12;;;;;;;0.60;0.60;;;3.00;99.90;;;3.69;100.00;-20782.38;5014946;28;20204;-68
2020/12/08 02:27:40;;;;;;;0.60;0.60;;;3.10;99.90;;;3.67;100.00;-20781.81;4995366;28;20270;-68
2020/12/08 02:30:10;;;;;;;0.68;0.60;;;3.10;99.90;;;3.71;100.00;-20783.09;4995773;28;20421;-68
2020/12/08 02:32:37;;;;;;;0.60;0.60;;;3.00;99.90;;;3.73;100.00;-20783.50;5015330;28;20190;-68
2020/12/08 02:35:07;;;;;;;0.70;0.60;;;3.10;99.90;;;3.75;100.00;-20784.06;5014757;28;20741;-68
2020/12/08 02:37:36;;;;;;;0.60;0.60;;;3.10;99.90;;;3.72;100.00;-20783.22;5015810;28;20999;-68
2020/12/08 02:40:06;;;;;;;0.60;0.60;;;3.10;99.90;;;3.72;100.00;-20783.22;5014961;28;20187;-68
2020/12/08 02:42:36;;;;;;;0.60;0.50;;;3.20;99.90;;;3.79;100.00;-20785.31;5030081;28;20503;-68
2020/12/08 02:45:03;;;;;;;0.60;0.60;;;3.20;99.90;;;3.80;100.00;-20785.47;5013992;28;20205;-68
2020/12/08 02:47:32;;;;;;;0.70;0.60;;;3.20;99.90;;;3.82;100.00;-20786.16;5014500;28;20578;-67
2020/12/08 02:50:00;;;;;;;0.60;0.50;;;3.20;99.90;;;3.82;100.00;-20786.16;5010598;28;20687;-69
2020/12/08 02:52:27;;;;;;;0.60;0.60;;;3.20;99.90;;;3.77;100.00;-20784.63;5012791;28;20545;-68
2020/12/08 02:54:55;;;;;;;0.60;0.60;;;3.10;99.90;;;3.80;100.00;-20785.47;5013737;28;20646;-68
2020/12/08 02:57:22;;;;;;;1.43;1.33;;;3.20;99.90;;;3.83;100.00;-20786.44;5012579;28;20484;-67
2020/12/08 02:59:49;;;;;;;0.60;0.60;;;3.20;99.90;;;3.92;100.00;-20788.66;5012324;28;20465;-68
2020/12/08 03:02:23;;;;;;;0.90;0.90;;;3.30;99.90;;;3.93;100.00;-20788.94;5014179;28;20454;-68
2020/12/08 03:04:52;;;;;;;0.60;0.50;;;3.30;99.90;;;3.95;100.00;-20789.63;5028693;28;20469;-68
2020/12/08 03:07:22;;;;;;;0.60;0.60;;;3.40;99.90;;;3.95;100.00;-20789.50;5010563;28;20230;-68
2020/12/08 03:09:50;;;;;;;0.60;0.55;;;3.40;99.90;;;4.07;100.00;-20792.97;5008356;28;20470;-69
2020/12/08 03:12:18;;;;;;;0.60;0.50;;;3.40;99.90;;;4.13;100.00;-20794.50;5012765;28;20285;-68
2020/12/08 03:14:49;;;;;;;0.60;0.60;;;3.50;99.90;;;4.10;100.00;-20793.69;5030914;28;20438;-69
2020/12/08 03:17:28;;;;;;;0.60;0.60;;;3.40;99.90;;;4.03;100.00;-20791.72;5015643;28;20195;-66
2020/12/08 03:19:56;;;;;;;0.60;0.50;;;3.50;99.90;;;4.09;100.00;-20793.41;5029799;28;20642;-67
2020/12/08 03:22:23;;;;;;;0.70;0.70;;;3.50;99.90;;;4.09;100.00;-20793.41;5012937;28;20453;-67
2020/12/08 03:24:54;;;;;;;0.65;0.57;;;3.50;99.90;;;4.13;100.00;-20794.38;5030122;28;20480;-69
2020/12/08 03:27:25;;;;;;;0.60;0.60;;;3.50;99.90;;;4.17;100.00;-20795.63;5013982;28;20223;-67
2020/12/08 03:29:57;;;;;;;0.60;0.60;;;3.50;99.90;;;4.13;100.00;-20794.50;5013044;28;20984;-67
2020/12/08 03:32:26;;;;;;;0.60;0.57;;;3.60;99.90;;;4.10;100.00;-20793.69;4997344;28;20252;-66
2020/12/08 03:34:54;;;;;;;0.60;0.60;;;3.60;99.90;;;4.10;100.00;-20793.69;4997649;28;20472;-67
2020/12/08 03:37:22;;;;;;;0.60;0.60;;;3.60;99.90;;;4.18;100.00;-20795.91;5009998;28;20862;-67
2020/12/08 03:39:53;;;;;;;1.83;1.70;;;3.60;99.90;;;4.21;100.00;-20796.75;5001377;28;20640;-67
2020/12/08 03:42:23;;;;;;;0.70;0.60;;;3.70;99.90;;;4.25;100.00;-20797.84;5009832;28;20459;-67
2020/12/08 03:44:51;;;;;;;0.70;0.60;;;3.70;99.90;;;4.36;100.00;-20800.78;5013849;28;20245;-67
2020/12/08 03:47:31;;;;;;;0.70;0.60;;;3.70;99.90;;;4.26;100.00;-20798.00;5012964;28;20490;-72
2020/12/08 03:50:00;;;;;;;0.60;0.60;;;3.70;99.90;;;4.25;100.00;-20797.84;5012987;28;20472;-72
2020/12/08 03:52:29;;;;;;;0.60;0.50;;;3.70;99.90;;;4.16;100.00;-20795.34;5025773;28;21000;-72
2020/12/08 03:54:57;;;;;;;0.70;0.60;;;3.60;99.90;;;4.12;100.00;-20794.22;5026768;28;20977;-72
2020/12/08 03:57:24;;;;;;;0.60;0.60;;;3.60;99.90;;;4.12;100.00;-20794.22;5029602;28;20532;-73
2020/12/08 03:59:52;;;;;;;0.60;0.60;;;3.60;99.90;;;4.04;100.00;-20792.16;5013144;28;20198;-72
2020/12/08 04:02:19;;;;;;;0.70;0.60;;;3.50;99.90;;;4.02;100.00;-20791.59;4996586;28;20201;-72
2020/12/08 04:04:49;;;;;;;0.60;0.50;;;3.50;99.90;;;3.91;100.00;-20788.38;5013074;28;20219;-72
2020/12/08 04:07:19;;;;;;;0.60;0.57;;;3.50;99.90;;;3.80;100.00;-20785.59;5013992;28;20528;-72
2020/12/08 04:09:48;;;;;;;0.60;0.50;;;3.40;99.90;;;3.59;100.00;-20779.75;5013088;28;20468;-72
2020/12/08 04:12:16;;;;;;;0.60;0.60;;;3.10;99.90;;;3.41;100.00;-20774.72;5012487;28;20486;-73
2020/12/08 04:14:44;;;;;;;0.70;0.60;;;3.10;99.90;;;3.38;100.00;-20774.16;5010418;28;20434;-73
2020/12/08 04:17:18;;;;;;;0.70;0.60;;;3.00;99.90;;;3.45;100.00;-20775.97;5008013;28;20584;-72
2020/12/08 04:19:48;;;;;;;0.70;0.60;;;3.10;99.90;;;3.48;100.00;-20776.81;5012912;28;20474;-74
2020/12/08 04:22:20;;;;;;;0.60;0.60;;;3.10;99.90;;;3.44;100.00;-20775.69;5028634;28;20688;-74
2020/12/08 04:24:48;;;;;;;0.70;0.60;;;3.10;99.90;;;3.58;100.00;-20779.47;5012889;28;20199;-72
2020/12/08 04:27:16;;;;;;;0.88;0.88;;;3.20;99.90;;;3.55;100.00;-20778.63;5012451;28;20196;-71
2020/12/08 04:29:54;;;;;;;0.70;0.60;;;3.10;99.90;;;3.44;100.00;-20775.56;5012810;28;20191;-72
2020/12/08 04:32:29;;;;;;;0.70;0.60;;;3.00;99.90;;;3.46;100.00;-20776.09;5028066;28;20198;-74
2020/12/08 04:34:56;;;;;;;0.70;0.60;;;3.00;99.90;;;3.70;100.00;-20782.66;5014314;28;20199;-72
2020/12/08 04:37:23;;;;;;;0.60;0.60;;;3.20;99.90;;;3.86;100.00;-20787.13;5012867;28;20555;-74
2020/12/08 04:39:50;;;;;;;0.70;0.60;;;3.30;99.90;;;3.99;100.00;-20790.63;5013305;28;20717;-75
2020/12/08 04:42:17;;;;;;;0.60;0.60;;;3.40;99.90;;;4.10;100.00;-20793.81;5013923;28;20254;-74
2020/12/08 04:44:44;;;;;;;1.52;1.42;;;3.60;99.90;;;4.23;100.00;-20797.31;5012900;28;20245;-72
2020/12/08 04:47:21;;;;;;;5.50;1.27;;;3.70;99.90;;;4.34;100.00;-20800.38;5013245;28;20197;-72
2020/12/08 04:49:52;;;;;;;0.70;0.70;;;3.80;99.90;;;4.41;100.00;-20802.03;5013819;28;20437;-72
2020/12/08 04:52:19;;;;;;;0.60;0.50;;;3.90;99.90;;;4.45;100.00;-20803.16;5013453;28;20430;-72
2020/12/08 04:54:46;;;;;;;0.60;0.50;;;4.00;99.90;;;4.61;100.00;-20807.63;5012744;28;20446;-71
2020/12/08 04:57:13;;;;;;;0.70;0.70;;;4.00;99.90;;;4.59;100.00;-20807.06;5012189;28;20226;-72
2020/12/08 04:59:40;;;;;;;0.70;0.70;;;4.00;99.90;;;4.69;100.00;-20809.69;5004652;28;20493;-72
2020/12/08 05:02:06;;;;;;;0.60;0.60;;;3.90;99.90;;;4.49;100.00;-20804.41;5011962;28;20552;-71
2020/12/08 05:04:33;;;;;;;0.60;0.60;;;3.90;99.90;;;4.62;100.00;-20807.88;5007902;28;20469;-72
2020/12/08 05:07:02;;;;;;;0.60;0.50;;;3.90;99.90;;;4.57;100.00;-20806.63;5002929;28;20457;-74
2020/12/08 05:09:30;;;;;;;0.60;0.60;;;3.90;99.90;;;4.68;100.00;-20809.44;5013486;28;20461;-72
2020/12/08 05:11:58;;;;;;;0.60;0.57;;;3.90;99.90;;;4.62;100.00;-20807.88;5012920;28;20545;-73
2020/12/08 05:14:26;;;;;;;0.60;0.60;;;3.90;99.90;;;4.61;100.00;-20807.63;5008554;28;20191;-72
2020/12/08 05:17:03;;;;;;;0.63;0.60;;;3.90;99.90;;;4.72;100.00;-20810.53;5004458;28;20549;-72
2020/12/08 05:19:31;;;;;;;0.60;0.60;;;4.00;99.90;;;4.71;100.00;-20810.41;4995870;28;20514;-73
2020/12/08 05:21:59;;;;;;;0.60;0.60;;;4.00;99.90;;;4.71;100.00;-20810.25;5012339;28;20446;-73
2020/12/08 05:24:29;;;;;;;0.60;0.50;;;4.00;99.90;;;4.71;100.00;-20810.25;5013047;28;20438;-71
2020/12/08 05:26:58;;;;;;;0.70;0.60;;;4.00;99.90;;;4.77;100.00;-20812.06;5013370;28;20437;-73
2020/12/08 05:29:27;;;;;;;0.60;0.60;;;4.00;99.90;;;4.56;100.00;-20806.22;5012894;28;20465;-72
2020/12/08 05:31:55;;;;;;;0.60;0.60;;;4.10;99.90;;;4.70;100.00;-20809.97;5012945;28;20500;-72
2020/12/08 05:34:24;;;;;;;0.60;0.50;;;4.10;99.90;;;4.72;100.00;-20810.53;5013118;28;20482;-72
2020/12/08 05:36:53;;;;;;;0.60;0.50;;;4.20;99.90;;;4.73;100.00;-20810.94;5012808;28;20946;-72
2020/12/08 05:39:22;;;;;;;0.70;0.60;;;4.20;99.90;;;4.78;100.00;-20812.22;5005137;28;20490;-72
2020/12/08 05:41:51;;;;;;;7.73;2.00;;;4.20;99.90;;;4.72;100.00;-20810.69;5019058;28;20454;-73
2020/12/08 05:44:26;;;;;;;0.63;0.60;;;4.20;99.90;;;4.83;100.00;-20813.75;5000401;28;20470;-73
2020/12/08 05:46:53;;;;;;;0.60;0.50;;;4.20;99.90;;;4.84;100.00;-20814.00;5004310;28;20850;-73
2020/12/08 05:49:21;;;;;;;0.60;0.50;;;4.20;99.90;;;4.90;100.00;-20815.41;5028655;28;20477;-72
2020/12/08 05:51:51;;;;;;;0.60;0.50;;;4.20;99.90;;;4.80;100.00;-20812.75;5007130;28;20469;-71
2020/12/08 05:54:20;;;;;;;0.60;0.50;;;4.20;99.90;;;4.84;100.00;-20814.00;5013459;28;20437;-74
2020/12/08 05:56:50;;;;;;;0.60;0.60;;;4.30;99.90;;;4.99;100.00;-20817.91;5015961;28;20461;-73
2020/12/08 05:59:25;;;;;;;0.60;0.60;;;4.30;99.90;;;5.00;100.00;-20818.34;5013523;28;20605;-73
2020/12/08 06:01:52;;;;;;;0.70;0.60;;;4.30;99.90;;;5.08;100.00;-20820.41;5013052;28;20560;-72
2020/12/08 06:04:19;;;;;;;0.70;0.70;;;4.40;99.90;;;5.03;100.00;-20819.03;5027376;28;20457;-73
2020/12/08 06:06:50;;;;;;;0.93;0.93;;;4.40;99.90;;;4.93;100.00;-20816.25;5025014;28;20553;-72
2020/12/08 06:09:24;;;;;;;0.60;0.60;;;4.30;99.90;;;5.02;100.00;-20818.75;5016132;28;20487;-73
2020/12/08 06:11:53;;;;;;;4.97;1.43;;;4.30;99.90;;;4.98;100.00;-20817.63;5016736;28;20953;-72
2020/12/08 06:14:34;;;;;;;0.70;0.60;;;4.30;99.90;;;4.83;100.00;-20813.75;5016992;28;20468;-73
2020/12/08 06:17:04;;;;;;;0.60;0.60;;;4.30;99.90;;;4.84;100.00;-20814.00;5016592;28;20457;-73
2020/12/08 06:19:31;;;;;;;0.70;0.60;;;4.20;99.90;;;4.86;100.00;-20814.44;5016390;28;20820;-73
2020/12/08 06:22:00;;;;;;;0.60;0.60;;;4.20;99.90;;;4.96;100.00;-20817.09;5015168;28;20654;-72
2020/12/08 06:24:27;;;;;;;0.90;0.90;;;4.20;99.90;;;4.80;100.00;-20812.75;5015055;28;20468;-73
2020/12/08 06:26:57;;;;;;;0.60;0.60;;;4.20;99.90;;;4.93;100.00;-20816.25;5016387;28;20426;-73
2020/12/08 06:29:24;;;;;;;0.70;0.67;;;4.20;99.90;;;4.90;100.00;-20815.56;5014865;28;20458;-75
2020/12/08 06:31:52;;;;;;;0.90;0.90;;;4.20;99.90;;;4.93;100.00;-20816.25;5016076;28;20446;-75
2020/12/08 06:34:20;;;;;;;0.60;0.60;;;4.20;99.90;;;4.91;100.00;-20815.69;5016256;28;20515;-75
2020/12/08 06:36:47;;;;;;;0.70;0.60;;;4.20;99.90;;;4.87;100.00;-20814.56;5015876;28;20676;-74
2020/12/08 06:39:14;;;;;;;0.70;0.60;;;4.20;99.90;;;4.87;100.00;-20814.72;5013543;28;20938;-73
2020/12/08 06:41:43;;;;;;;0.60;0.60;;;4.20;99.90;;;4.94;100.00;-20816.53;5013416;28;20442;-72
2020/12/08 06:44:18;;;;;;;0.70;0.70;;;4.20;99.90;;;4.90;100.00;-20815.41;5007944;28;20536;-75
2020/12/08 06:46:52;;;;;;;0.60;0.50;;;4.20;99.90;;;4.87;100.00;-20814.56;5012952;28;20428;-75
2020/12/08 06:49:24;;;;;;;0.60;0.50;;;4.30;99.90;;;4.93;100.00;-20816.38;5015884;28;20469;-74
2020/12/08 06:51:55;;;;;;;0.70;0.70;;;4.30;99.90;;;4.98;100.00;-20817.63;5015723;28;20992;-76
2020/12/08 06:54:25;;;;;;;0.60;0.60;;;4.20;99.90;;;4.95;100.00;-20816.81;5016153;28;20418;-74
2020/12/08 06:56:59;;;;;;;0.70;0.60;;;4.20;99.90;;;4.82;100.00;-20813.47;5014826;28;20415;-75
2020/12/08 06:59:28;;;;;;;0.70;0.60;;;4.20;99.90;;;4.96;100.00;-20817.09;5030072;28;20438;-74
2020/12/08 07:01:58;;;;;;;2.10;1.90;;;4.30;99.90;;;4.91;100.00;-20815.81;5015803;28;20429;-74
2020/12/08 07:04:27;;;;;;;0.63;0.60;;;4.30;99.90;;;4.91;100.00;-20815.81;5012733;28;20797;-74
2020/12/08 07:06:57;;;;;;;0.70;0.70;;;4.30;99.90;;;4.91;100.00;-20815.69;5015274;28;20442;-74
2020/12/08 07:09:24;;;;;;;0.60;0.50;;;4.30;99.90;;;4.94;100.00;-20816.53;5015462;28;20465;-74
2020/12/08 07:12:00;;;;;;;0.60;0.60;;;4.20;99.90;;;5.04;100.00;-20819.31;5015591;28;20437;-73
2020/12/08 07:14:29;;;;;;;0.67;0.60;;;4.20;99.90;;;5.00;100.00;-20818.19;5015445;28;20420;-73
2020/12/08 07:16:56;;;;;;;0.60;0.60;;;4.20;99.90;;;4.91;100.00;-20815.69;5015682;28;20475;-74
2020/12/08 07:19:24;;;;;;;0.70;0.60;;;4.20;99.90;;;4.84;100.00;-20814.00;5014354;28;20970;-75
2020/12/08 07:21:58;;;;;;;0.60;0.57;;;4.20;99.90;;;4.71;100.00;-20810.41;5015495;28;20871;-74
2020/12/08 07:24:26;;;;;;;0.70;0.60;;;4.10;99.90;;;4.90;100.00;-20815.41;5015293;28;20418;-74
2020/12/08 07:26:58;;;;;;;0.60;0.50;;;4.10;99.90;;;4.85;100.00;-20814.28;5015501;28;20418;-75
2020/12/08 07:29:25;;;;;;;0.70;0.60;;;4.10;99.90;;;4.73;100.00;-20810.94;5015668;28;20471;-74
2020/12/08 07:31:53;;;;;;;0.60;0.60;;;4.10;99.90;;;4.71;100.00;-20810.25;5014356;28;20460;-75
2020/12/08 07:34:20;;;;;;;0.70;0.60;;;4.00;99.90;;;4.70;100.00;-20809.97;5015293;28;20504;-74
2020/12/08 07:36:47;;;;;;;0.60;0.60;;;4.00;99.90;;;4.77;100.00;-20811.94;5014916;28;20433;-74
2020/12/08 07:39:20;;;;;;;0.60;0.50;;;4.00;99.90;;;4.78;100.00;-20812.34;5015136;28;20442;-74
2020/12/08 07:41:47;;;;;;;0.60;0.50;;;4.10;99.90;;;4.78;100.00;-20812.34;5015395;28;20206;-73
2020/12/08 07:44:19;;;;;;;0.60;0.50;;;4.10;99.90;;;4.77;100.00;-20812.06;5017294;28;20422;-73
2020/12/08 07:46:50;;;;;;;0.70;0.70;;;4.10;99.90;;;4.72;100.00;-20810.69;5015402;28;20425;-74
2020/12/08 07:49:18;;;;;;;1.70;1.07;;;4.00;99.90;;;4.76;100.00;-20811.66;5014848;28;20515;-75
2020/12/08 07:51:50;;;;;;;0.60;0.57;;;4.00;99.90;;;4.82;100.00;-20813.47;5014784;28;20438;-75
2020/12/08 07:54:17;;;;;;;0.60;0.60;;;4.10;99.90;;;4.82;100.00;-20813.47;5014490;28;20414;-74
2020/12/08 07:56:44;;;;;;;0.60;0.50;;;4.00;99.90;;;4.76;100.00;-20811.78;5010430;28;20442;-75
2020/12/08 07:59:12;;;;;;;0.60;0.50;;;4.10;99.90;;;4.74;100.00;-20811.22;5013713;28;20450;-75
2020/12/08 08:01:41;;;;;;;0.70;0.60;;;4.10;99.90;;;4.79;100.00;-20812.63;5014858;28;20491;-74
2020/12/08 08:04:09;;;;;;;0.60;0.50;;;4.10;99.90;;;4.82;100.00;-20813.47;5015176;28;20450;-74
2020/12/08 08:06:37;;;;;;;0.80;0.80;;;4.10;99.90;;;4.81;100.00;-20813.19;5014831;28;20449;-75
2020/12/08 08:09:07;;;;;;;0.60;0.50;;;4.10;99.90;;;4.89;100.00;-20815.13;5014273;28;20457;-74
2020/12/08 08:11:36;;;;;;;0.60;0.60;;;4.20;99.90;;;4.77;100.00;-20812.06;5011787;28;20426;-74
2020/12/08 08:14:03;;;;;;;0.70;0.60;;;4.10;99.90;;;4.76;100.00;-20811.78;5011688;28;20461;-75
2020/12/08 08:16:30;;;;;;;0.70;0.60;;;4.10;99.90;;;4.87;100.00;-20814.56;5014945;28;20537;-75
2020/12/08 08:18:58;;;;;;;0.60;0.60;;;4.10;99.90;;;4.89;100.00;-20815.13;5014549;28;20481;-75
2020/12/08 08:21:25;;;;;;;0.70;0.60;;;4.10;99.90;;;4.86;100.00;-20814.44;5014306;28;20953;-75
2020/12/08 08:23:53;;;;;;;0.70;0.60;;;4.20;99.90;;;4.84;100.00;-20813.88;5014230;28;20414;-74
2020/12/08 08:26:20;;;;;;;0.70;0.60;;;4.20;99.90;;;4.90;100.00;-20815.41;5014234;28;20837;-74
2020/12/08 08:28:48;;;;;;;0.70;0.70;;;4.20;99.90;;;4.97;100.00;-20817.50;5014085;28;20856;-75
2020/12/08 08:31:15;;;;;;;1.23;1.13;;;4.20;99.90;;;4.95;100.00;-20816.81;5014814;28;20429;-75
2020/12/08 08:33:43;;;;;;;0.60;0.60;;;4.20;99.90;;;5.04;100.00;-20819.31;5013181;28;20445;-74
2020/12/08 08:36:10;;;;;;;0.60;0.60;;;4.20;99.90;;;5.03;100.00;-20819.03;5013992;28;20433;-74
2020/12/08 08:38:37;;;;;;;0.70;0.60;;;4.20;99.90;;;5.08;100.00;-20820.56;5014242;28;20414;-75
2020/12/08 08:41:05;;;;;;;0.60;0.60;;;4.30;99.90;;;4.95;100.00;-20816.81;5014180;28;20845;-75
2020/12/08 08:43:32;;;;;;;0.70;0.60;;;4.30;99.90;;;5.00;100.00;-20818.34;5004275;28;20447;-74
2020/12/08 08:46:00;;;;;;;0.60;0.50;;;4.30;99.90;;;5.10;100.00;-20820.97;5012025;28;20451;-75
2020/12/08 08:48:27;;;;;;;0.70;0.60;;;4.30;99.90;;;5.28;100.00;-20826.00;5006595;28;20470;-75
2020/12/08 08:50:54;;;;;;;0.60;0.50;;;4.30;99.90;;;5.25;100.00;-20825.16;4994477;28;20418;-75
2020/12/08 08:53:21;;;;;;;0.70;0.60;;;4.40;99.90;;;5.07;100.00;-20820.13;4994535;28;20430;-75
2020/12/08 08:55:48;;;;;;;0.60;0.60;;;4.40;99.90;;;5.19;100.00;-20823.50;4996529;28;20442;-74
2020/12/08 08:58:15;;;;;;;0.60;0.60;;;4.50;99.90;;;5.25;100.00;-20825.16;4994430;28;20407;-74
2020/12/08 09:00:43;;;;;;;0.67;0.57;;;4.50;99.90;;;5.41;100.00;-20829.31;5002586;28;20430;-75
2020/12/08 09:03:10;;;;;;;0.70;0.60;;;4.60;99.90;;;5.43;100.00;-20829.88;5013825;28;21078;-75
2020/12/08 09:05:42;;;;;;;0.70;0.60;;;4.60;99.90;;;5.62;100.00;-20835.03;5013649;28;20418;-75
2020/12/08 09:08:10;;;;;;;0.63;0.57;;;4.60;99.90;;;5.59;100.00;-20834.34;5013540;28;20872;-75
2020/12/08 09:10:38;;;;;;;0.70;0.60;;;4.70;99.90;;;5.67;100.00;-20836.56;5013844;28;20434;-75
2020/12/08 09:13:06;;;;;;;0.70;0.60;;;4.70;99.90;;;5.63;100.00;-20835.31;5007410;28;20437;-75
2020/12/08 09:15:34;;;;;;;0.60;0.60;;;4.70;99.90;;;5.59;100.00;-20834.34;4994488;28;20419;-74
2020/12/08 09:18:04;;;;;;;0.60;0.50;;;4.70;99.90;;;5.64;100.00;-20835.72;4994433;28;20858;-75
2020/12/08 09:20:31;;;;;;;0.60;0.50;;;4.80;99.90;;;5.84;100.00;-20841.00;5009133;28;20438;-75
2020/12/08 09:22:59;;;;;;;0.70;0.60;;;4.80;99.90;;;5.72;100.00;-20837.97;4994834;28;20875;-75
2020/12/08 09:25:28;;;;;;;0.70;0.60;;;4.80;99.90;;;5.87;100.00;-20841.84;4997946;28;20426;-75
2020/12/08 09:27:55;;;;;;;0.70;0.60;;;4.90;99.90;;;5.80;100.00;-20840.19;4998473;28;20937;-75
2020/12/08 09:30:23;;;;;;;0.80;0.80;;;4.90;99.90;;;5.87;100.00;-20841.84;5012899;28;21032;-74
2020/12/08 09:32:51;;;;;;;0.70;0.60;;;5.00;99.90;;;6.01;100.00;-20845.75;4997468;28;20415;-74
2020/12/08 09:35:19;;;;;;;0.60;0.60;;;5.00;99.90;;;5.92;100.00;-20843.38;5017276;28;20433;-75
2020/12/08 09:37:46;;;;;;;0.70;0.60;;;5.10;99.90;;;5.92;100.00;-20843.25;5017064;28;20968;-75
2020/12/08 09:40:13;;;;;;;0.70;0.60;;;5.10;99.90;;;6.19;100.00;-20850.75;5017584;28;20981;-74
2020/12/08 09:42:43;;;;;;;0.70;0.70;;;5.20;99.90;;;6.55;100.00;-20860.47;5017305;28;20480;-75
2020/12/08 09:45:12;;;;;;;0.60;0.53;;;5.30;99.90;;;6.64;100.00;-20863.00;5015898;28;20436;-74
2020/12/08 09:47:39;;;;;;;0.70;0.70;;;5.30;99.90;;;6.34;100.00;-20854.66;5017280;28;20490;-75
2020/12/08 09:50:10;;;;;;;0.70;0.70;;;5.40;99.90;;;6.69;100.00;-20864.38;5015914;28;20466;-75
2020/12/08 09:52:38;;;;;;;0.70;0.60;;;5.50;99.90;;;6.68;100.00;-20863.97;5017038;28;20418;-74
2020/12/08 09:55:05;;;;;;;0.70;0.60;;;5.60;99.90;;;6.53;100.00;-20859.94;5017122;28;20440;-74
2020/12/08 09:57:33;;;;;;;1.67;1.47;;;5.60;99.90;;;6.70;100.00;-20864.66;5016673;28;20437;-75
2020/12/08 10:00:00;;;;;;;0.70;0.70;;;5.70;99.90;;;7.00;100.00;-20872.84;4999331;28;20478;-75
2020/12/08 10:02:28;;;;;;;1.13;0.70;;;5.80;99.90;;;7.43;100.00;-20884.38;4997172;28;20428;-76
2020/12/08 10:04:56;;;;;;;0.70;0.60;;;5.90;99.90;;;7.11;100.00;-20875.63;4997278;28;20449;-74
2020/12/08 10:07:24;;;;;;;0.70;0.70;;;6.00;99.90;;;7.65;100.00;-20890.50;5008368;28;20448;-75
2020/12/08 10:09:52;;;;;;;0.70;0.60;;;5.90;99.90;;;7.51;100.00;-20886.59;5016276;28;21050;-75
2020/12/08 10:12:20;;;;;;;0.70;0.60;;;6.00;99.90;;;7.76;100.00;-20893.41;5005224;28;20884;-75
2020/12/08 10:14:48;;;;;;;0.63;0.50;;;6.20;99.90;;;7.59;100.00;-20888.69;4997003;28;20763;-75
2020/12/08 10:17:16;;;;;;;0.70;0.60;;;6.10;99.90;;;7.32;100.00;-20881.31;5012083;28;20443;-75
2020/12/08 10:19:44;;;;;;;0.70;0.70;;;6.10;99.90;;;7.13;100.00;-20876.31;4998153;28;20536;-75
2020/12/08 10:22:12;;;;;;;0.70;0.60;;;5.90;99.90;;;7.01;100.00;-20873.00;5011948;28;20452;-74
2020/12/08 10:24:41;;;;;;;1.33;1.17;;;5.90;99.90;;;7.60;100.00;-20888.97;4996880;28;20433;-75
2020/12/08 10:27:08;;;;;;;0.80;0.80;;;5.90;99.90;;;7.29;100.00;-20880.50;4997013;28;20458;-76
2020/12/08 10:29:36;;;;;;;0.70;0.60;;;5.90;99.90;;;7.27;100.00;-20880.06;4996827;28;20964;-76
2020/12/08 10:32:03;;;;;;;0.70;0.60;;;5.80;99.90;;;7.43;100.00;-20884.38;4995623;28;20922;-76